This is the latest recevied weather packets stored in our database for station/object GBTWP-2. If no packets are shown the sender has not sent any weather packets the latest 1 day(s).
| Time | Temp. | Humidity | Pressure | Rain* | Wind** | Luminosity | Snow |
|---|---|---|---|---|---|---|---|
| 1836274676 | 14.44° C | 82% | 1024.7 hPa | 0 mm | 0 m/s | 0 W/m² | - |
| 1836274526 | 13.89° C | 83% | 1024.6 hPa | 0 mm | 0 m/s | 0 W/m² | - |
| 1836274376 | 14.44° C | 82% | 1024.9 hPa | 0 mm | 0 m/s | 0 W/m² | - |
| 1836274226 | 13.89° C | 82% | 1024.9 hPa | 0 mm | 0 m/s | 0 W/m² | - |
| 1836274076 | 14.44° C | 81% | 1024.6 hPa | 0 mm | 0 m/s | 0 W/m² | - |
| 1778054405 | 6.67° C | 79% | 1011.7 hPa | 0 mm | 0 m/s | 0 W/m² | - |
| 1778054101 | 6.67° C | 79% | 1011.6 hPa | 0 mm | 0 m/s | 0 W/m² | - |
| 1778053505 | 6.67° C | 78% | 1011.7 hPa | 0 mm | 0 m/s | 0 W/m² | - |
| 1778053205 | 6.67° C | 77% | 1011.6 hPa | 0 mm | 0 m/s | 0 W/m² | - |
| 1778052305 | 7.22° C | 75% | 1011.7 hPa | 0 mm | 0 m/s | 0 W/m² | - |
| 1778052005 | 7.22° C | 74% | 1011.5 hPa | 0 mm | 0 m/s | 0 W/m² | - |
| 1778051406 | 7.22° C | 73% | 1011.7 hPa | 0 mm | 0 m/s | 0 W/m² | - |
| 1778050805 | 7.78° C | 72% | 1011.6 hPa | 0 mm | 0 m/s | 0 W/m² | - |
| 1778050505 | 7.78° C | 72% | 1011.6 hPa | 0 mm | 0 m/s | 0 W/m² | - |
| 1778049905 | 7.78° C | 70% | 1011.3 hPa | 0 mm | 0 m/s | 0 W/m² | - |
| 1778049605 | 7.78° C | 69% | 1011.6 hPa | 0 mm | 0 m/s | 0 W/m² | - |
| 1778049005 | 7.78° C | 67% | 1011.6 hPa | 0 mm | 0 m/s | 0 W/m² | - |
| 1778048702 | 7.78° C | 66% | 1011.6 hPa | 0 mm | 0 m/s | 0 W/m² | - |
| 1778048105 | 7.78° C | 65% | 1011.8 hPa | 0 mm | 0 m/s | 0 W/m² | - |
| 1778047806 | 8.33° C | 64% | 1011.9 hPa | 0 mm | 0 m/s | 0 W/m² | - |
| 1778047502 | 8.33° C | 63% | 1011.8 hPa | 0 mm | 0 m/s | 0 W/m² | - |
| 1778047202 | 8.33° C | 64% | 1011.4 hPa | 0 mm | 0 m/s | 0 W/m² | - |
| 1778046901 | 8.33° C | 63% | 1011.5 hPa | 0 mm | 0 m/s | 0 W/m² | - |
| 1778046302 | 8.33° C | 62% | 1011.5 hPa | 0 mm | 0 m/s | 0 W/m² | - |
| 1778046001 | 8.33° C | 61% | 1011.3 hPa | 0 mm | 0 m/s | 0 W/m² | - |
* Rain latest hour (hover to see other rain measurements)
** Current wind speed in m/s (hover to see current wind gust speed)